createdAt,value
2022-10-17T00:00:53.082Z,102105.84
2022-10-17T00:03:23.319Z,102106.69
2022-10-17T00:05:53.577Z,102119.72
2022-10-17T00:08:24.267Z,102111.88
2022-10-17T00:10:59.960Z,102108.38
2022-10-17T00:13:30.825Z,102105.75
2022-10-17T00:16:01.805Z,102102.28
2022-10-17T00:18:32.803Z,102109.25
2022-10-17T00:21:03.147Z,102110.09
2022-10-17T00:23:34.123Z,102115.34
2022-10-17T00:26:06.614Z,102117.06
2022-10-17T00:28:37.017Z,102117.06
2022-10-17T00:31:07.803Z,102122.28
2022-10-17T00:33:39.395Z,102099.53
2022-10-17T00:36:14.752Z,102107.44
2022-10-17T00:38:46.970Z,102105.69
2022-10-17T00:41:21.952Z,102117.03
2022-10-17T00:44:04.775Z,102114.34
2022-10-17T00:46:36.944Z,102102.06
2022-10-17T00:49:10.293Z,102115.19
2022-10-17T00:51:46.138Z,102116.06
2022-10-17T00:54:19.521Z,102111.69
2022-10-17T00:56:50.573Z,102117.75
2022-10-17T00:59:23.398Z,102124.72
2022-10-17T01:02:07.975Z,102135.16
2022-10-17T01:04:40.881Z,102110.66
2022-10-17T01:07:11.363Z,102122.94
2022-10-17T01:09:44.434Z,102111.56
2022-10-17T01:12:20.646Z,102125.53
2022-10-17T01:15:18.130Z,102132.44
2022-10-17T01:18:15.923Z,102131.56
2022-10-17T01:21:16.967Z,102137.66
2022-10-17T01:24:14.971Z,102144.59
2022-10-17T01:26:51.446Z,102140.22
2022-10-17T01:29:57.818Z,102129.59
2022-10-17T01:32:44.042Z,102144.50
2022-10-17T01:35:32.868Z,102133.13
2022-10-17T01:38:23.678Z,102136.59
2022-10-17T01:41:15.904Z,102131.34
2022-10-17T01:44:21.099Z,102158.31
2022-10-17T01:46:58.714Z,102179.19
2022-10-17T01:49:31.943Z,102177.38
2022-10-17T01:52:19.817Z,102180.06
2022-10-17T01:54:55.277Z,102154.72
2022-10-17T01:57:46.657Z,102151.25
2022-10-17T02:00:24.096Z,102165.19
2022-10-17T02:03:08.517Z,102149.41
2022-10-17T02:05:40.435Z,102165.94
2022-10-17T02:08:11.016Z,102144.00
2022-10-17T02:11:01.904Z,102170.25
2022-10-17T02:13:56.762Z,102183.31
2022-10-17T02:16:35.838Z,102185.06
2022-10-17T02:19:44.022Z,102180.69
2022-10-17T02:22:32.107Z,102203.25
2022-10-17T02:25:13.147Z,102201.50
2022-10-17T02:28:01.889Z,102196.19
2022-10-17T02:30:44.249Z,102180.41
2022-10-17T02:33:38.075Z,102208.41
2022-10-17T02:36:14.292Z,102200.44
2022-10-17T02:38:45.768Z,102205.72
2022-10-17T02:41:18.313Z,102167.16
2022-10-17T02:43:50.206Z,102213.53
2022-10-17T02:46:23.811Z,102216.97
2022-10-17T02:49:10.831Z,102196.84
2022-10-17T02:51:59.267Z,102209.13
2022-10-17T02:54:36.046Z,102180.16
2022-10-17T02:57:09.259Z,102228.28
2022-10-17T02:59:42.064Z,102208.06
2022-10-17T03:02:12.265Z,102220.28
2022-10-17T03:04:47.323Z,102228.94
2022-10-17T03:07:17.414Z,102225.38
2022-10-17T03:09:47.555Z,102223.59
2022-10-17T03:12:18.086Z,102243.66
2022-10-17T03:14:48.223Z,102254.97
2022-10-17T03:17:18.352Z,102251.44
2022-10-17T03:19:48.435Z,102259.28
2022-10-17T03:22:18.724Z,102259.28
2022-10-17T03:24:48.817Z,102251.41
2022-10-17T03:27:19.041Z,102241.78
2022-10-17T03:29:49.307Z,102245.22
2022-10-17T03:32:19.584Z,102255.75
2022-10-17T03:34:49.809Z,102269.66
2022-10-17T03:37:19.937Z,102274.81
2022-10-17T03:39:50.045Z,102252.03
2022-10-17T03:42:20.151Z,102273.94
2022-10-17T03:44:50.239Z,102268.69
2022-10-17T03:47:20.495Z,102266.03
2022-10-17T03:49:50.641Z,102273.88
2022-10-17T03:52:20.809Z,102258.00
2022-10-17T03:54:51.402Z,102235.25
2022-10-17T03:57:21.536Z,102243.19
2022-10-17T03:59:52.584Z,102247.56
2022-10-17T04:02:25.025Z,102237.91
2022-10-17T04:04:55.142Z,102229.88
2022-10-17T04:09:56.794Z,102266.56
2022-10-17T04:12:27.064Z,102261.22
2022-10-17T04:15:00.437Z,102279.66
2022-10-17T04:17:35.872Z,102292.75
2022-10-17T04:20:08.843Z,102287.50
2022-10-17T04:22:39.136Z,102269.13
2022-10-17T04:25:09.674Z,102281.34
2022-10-17T04:27:39.840Z,102275.03
2022-10-17T04:30:10.573Z,102291.81
2022-10-17T04:32:40.766Z,102296.13
2022-10-17T04:35:10.983Z,102289.91
2022-10-17T04:37:41.084Z,102289.06
2022-10-17T04:40:11.623Z,102278.56
2022-10-17T04:42:41.737Z,102269.00
2022-10-17T04:45:11.875Z,102284.78
2022-10-17T04:47:42.023Z,102284.81
2022-10-17T04:50:12.172Z,102276.09
2022-10-17T04:52:42.433Z,102239.31
2022-10-17T04:55:12.602Z,102272.50
2022-10-17T04:57:42.773Z,102273.41
2022-10-17T05:00:13.382Z,102283.84
2022-10-17T05:02:43.636Z,102273.34
2022-10-17T05:05:13.889Z,102268.78
2022-10-17T05:07:44.002Z,102314.31
2022-10-17T05:10:14.140Z,102308.25
2022-10-17T05:12:44.268Z,102302.00
2022-10-17T05:15:14.977Z,102298.56
2022-10-17T05:17:45.084Z,102300.31
2022-10-17T05:20:15.349Z,102260.94
2022-10-17T05:22:45.575Z,102310.91
2022-10-17T05:25:15.857Z,102307.38
2022-10-17T05:27:46.218Z,102324.81
2022-10-17T05:30:16.429Z,102326.53
2022-10-17T05:32:46.566Z,102320.31
2022-10-17T05:35:18.227Z,102318.66
2022-10-17T05:37:48.829Z,102289.84
2022-10-17T05:40:18.999Z,102281.16
2022-10-17T05:42:49.507Z,102313.63
2022-10-17T05:45:19.939Z,102318.06
2022-10-17T05:47:50.051Z,102332.16
2022-10-17T05:50:22.231Z,102321.72
2022-10-17T05:52:55.652Z,102330.56
2022-10-17T05:55:26.044Z,102339.31
2022-10-17T05:57:56.442Z,102334.94
2022-10-17T06:00:26.630Z,102333.28
2022-10-17T06:02:57.195Z,102331.53
2022-10-17T06:05:27.508Z,102351.78
2022-10-17T06:07:59.624Z,102360.53
2022-10-17T06:10:32.083Z,102306.22
2022-10-17T06:13:02.257Z,102350.19
2022-10-17T06:15:32.397Z,102347.66
2022-10-17T06:18:02.505Z,102336.44
2022-10-17T06:20:32.694Z,102360.97
2022-10-17T06:23:02.913Z,102357.47
2022-10-17T06:25:33.549Z,102365.41
2022-10-17T06:28:04.116Z,102361.00
2022-10-17T06:30:43.206Z,102381.25
2022-10-17T06:33:13.359Z,102370.00
2022-10-17T06:35:43.752Z,102365.63
2022-10-17T06:38:13.913Z,102387.56
2022-10-17T06:40:43.993Z,102391.06
2022-10-17T06:43:14.229Z,102392.00
2022-10-17T06:45:47.670Z,102390.34
2022-10-17T06:48:17.834Z,102386.00
2022-10-17T06:50:47.955Z,102396.56
2022-10-17T06:53:18.148Z,102380.84
2022-10-17T06:55:54.174Z,102346.72
2022-10-17T06:58:24.297Z,102391.50
2022-10-17T07:01:02.844Z,102387.94
2022-10-17T07:03:33.640Z,102381.84
2022-10-17T07:06:04.731Z,102379.22
2022-10-17T07:08:34.901Z,102367.84
2022-10-17T07:11:17.524Z,102391.56
2022-10-17T07:13:48.351Z,102392.50
2022-10-17T07:16:18.584Z,102393.38
2022-10-17T07:18:52.791Z,102411.84
2022-10-17T07:21:22.956Z,102416.25
2022-10-17T07:23:53.023Z,102421.50
2022-10-17T07:26:23.180Z,102420.66
2022-10-17T07:28:55.370Z,102411.03
2022-10-17T07:31:25.551Z,102410.25
2022-10-17T07:33:55.642Z,102402.38
2022-10-17T07:36:25.844Z,102413.75
2022-10-17T07:38:56.245Z,102411.19
2022-10-17T07:41:26.506Z,102426.16
2022-10-17T07:43:56.541Z,102404.31
2022-10-17T07:46:26.967Z,102402.59
2022-10-17T07:48:57.519Z,102399.13
2022-10-17T07:51:28.129Z,102400.03
2022-10-17T07:53:58.245Z,102417.63
2022-10-17T07:56:29.796Z,102425.50
2022-10-17T07:59:01.725Z,102425.50
2022-10-17T08:01:34.269Z,102429.00
2022-10-17T08:04:04.303Z,102430.75
2022-10-17T08:06:34.519Z,102415.03
2022-10-17T08:09:04.835Z,102394.84
2022-10-17T08:11:36.679Z,102424.72
2022-10-17T08:14:07.217Z,102424.75
2022-10-17T08:16:37.459Z,102429.19
2022-10-17T08:21:45.236Z,102431.13
2022-10-17T08:24:15.375Z,102386.47
2022-10-17T08:26:48.269Z,102415.44
2022-10-17T08:29:19.919Z,102426.88
2022-10-17T08:31:54.077Z,102408.50
2022-10-17T08:34:28.906Z,102394.50
2022-10-17T08:36:59.272Z,102418.16
2022-10-17T08:39:29.589Z,102393.69
2022-10-17T08:42:02.367Z,102410.38
2022-10-17T08:44:57.722Z,102412.97
2022-10-17T08:47:40.993Z,102408.66
2022-10-17T08:50:53.209Z,102411.28
2022-10-17T08:53:33.177Z,102378.00
2022-10-17T08:56:44.542Z,102393.78
2022-10-17T08:59:21.842Z,102406.06
2022-10-17T09:02:14.924Z,102386.75
2022-10-17T09:05:03.540Z,102408.69
2022-10-17T09:07:50.274Z,102398.19
2022-10-17T09:11:09.860Z,102401.69
2022-10-17T09:14:04.938Z,102387.72
2022-10-17T09:16:55.930Z,102400.88
2022-10-17T09:19:34.598Z,102391.28
2022-10-17T09:22:18.973Z,102386.88
2022-10-17T09:24:55.667Z,102389.56
2022-10-17T09:27:46.920Z,102393.94
2022-10-17T09:30:46.475Z,102394.00
2022-10-17T09:33:35.904Z,102384.41
2022-10-17T09:36:22.510Z,102332.78
2022-10-17T09:39:02.844Z,102368.66
2022-10-17T09:41:46.542Z,102355.53
2022-10-17T09:44:23.766Z,102379.16
2022-10-17T09:47:06.098Z,102386.13
2022-10-17T09:49:41.417Z,102386.13
2022-10-17T09:52:17.071Z,102339.78
2022-10-17T09:54:57.771Z,102384.34
2022-10-17T09:57:30.488Z,102347.63
2022-10-17T10:00:05.140Z,102373.84
2022-10-17T10:02:40.930Z,102362.47
2022-10-17T10:05:20.257Z,102377.34
2022-10-17T10:08:04.096Z,102370.34
2022-10-17T10:10:34.467Z,102362.47
2022-10-17T10:13:13.456Z,102367.69
2022-10-17T10:15:49.819Z,102352.84
2022-10-17T10:18:25.704Z,102372.94
2022-10-17T10:21:10.143Z,102367.69
2022-10-17T10:23:45.934Z,102323.97
2022-10-17T10:26:32.354Z,102346.66
2022-10-17T10:29:06.769Z,102341.41
2022-10-17T10:31:40.748Z,102340.56
2022-10-17T10:34:24.826Z,102372.06
2022-10-17T10:37:05.640Z,102365.03
2022-10-17T10:39:50.079Z,102358.84
2022-10-17T10:42:20.115Z,102358.00
2022-10-17T10:44:51.996Z,102351.88
2022-10-17T10:47:26.757Z,102332.59
2022-10-17T10:50:26.434Z,102358.75
2022-10-17T10:53:42.082Z,102363.06
2022-10-17T10:56:26.790Z,102334.16
2022-10-17T10:59:09.032Z,102358.56
2022-10-17T11:01:41.982Z,102358.50
2022-10-17T11:04:24.331Z,102349.69
2022-10-17T11:07:03.548Z,102347.84
2022-10-17T11:10:09.375Z,102349.56
2022-10-17T11:12:48.577Z,102334.59
2022-10-17T11:15:25.877Z,102305.72
2022-10-17T11:18:37.690Z,102328.34
2022-10-17T11:21:20.065Z,102324.78
2022-10-17T11:24:06.800Z,102329.13
2022-10-17T11:26:45.514Z,102295.88
2022-10-17T11:29:15.750Z,102315.81
2022-10-17T11:31:53.100Z,102319.22
2022-10-17T11:34:27.277Z,102316.41
2022-10-17T11:37:02.458Z,102303.94
2022-10-17T11:39:48.820Z,102298.50
2022-10-17T11:42:33.181Z,102257.34
2022-10-17T11:45:10.833Z,102252.88
2022-10-17T11:47:51.743Z,102257.19
2022-10-17T11:53:22.206Z,102265.03
2022-10-17T11:55:54.703Z,102250.16
2022-10-17T11:58:46.616Z,102220.47
2022-10-17T12:01:30.792Z,102237.06
2022-10-17T12:04:54.902Z,102245.66
2022-10-17T12:07:37.265Z,102252.50
2022-10-17T12:10:37.463Z,102248.81
2022-10-17T12:13:33.931Z,102237.28
2022-10-17T12:16:22.022Z,102251.94
2022-10-17T12:19:01.222Z,102250.06
2022-10-17T12:22:09.905Z,102252.56
2022-10-17T12:24:43.118Z,102252.47
2022-10-17T12:27:35.975Z,102250.56
2022-10-17T12:30:12.119Z,102249.63
2022-10-17T12:33:07.757Z,102251.31
2022-10-17T12:35:39.394Z,102242.53
2022-10-17T12:38:18.688Z,102253.09
2022-10-17T12:40:55.485Z,102261.00
2022-10-17T12:43:28.529Z,102250.44
2022-10-17T12:46:03.450Z,102249.53
2022-10-17T12:48:33.537Z,102244.25
2022-10-17T12:54:16.577Z,102223.97
2022-10-17T12:56:49.558Z,102216.91
2022-10-17T12:59:29.293Z,102198.53
2022-10-17T13:02:03.692Z,102202.00
2022-10-17T13:04:37.285Z,102224.66
2022-10-17T13:07:21.350Z,102205.34
2022-10-17T13:09:51.846Z,102219.31
2022-10-17T13:12:27.623Z,102221.63
2022-10-17T13:14:58.522Z,102217.03
2022-10-17T13:17:31.089Z,102188.94
2022-10-17T13:20:01.938Z,102170.50
2022-10-17T13:22:33.552Z,102163.22
2022-10-17T13:25:10.393Z,102187.34
2022-10-17T13:27:40.610Z,102183.75
2022-10-17T13:30:31.899Z,102175.75
2022-10-17T13:33:04.351Z,102146.06
2022-10-17T13:38:32.715Z,102153.13
2022-10-17T13:41:30.062Z,102160.09
2022-10-17T13:43:54.974Z,102157.53
2022-10-17T13:46:40.883Z,102122.75
2022-10-17T13:49:37.247Z,102150.56
2022-10-17T13:52:16.994Z,102123.53
2022-10-17T13:54:51.812Z,102117.50
2022-10-17T13:57:28.118Z,102140.97
2022-10-17T14:00:10.097Z,102141.81
2022-10-17T14:02:42.148Z,102130.59
2022-10-17T14:05:18.145Z,102154.16
2022-10-17T14:08:20.468Z,102144.47
2022-10-17T14:10:50.816Z,102138.34
2022-10-17T14:13:30.490Z,102123.59
2022-10-17T14:16:03.158Z,102125.28
2022-10-17T14:18:36.633Z,102103.53
2022-10-17T14:24:28.242Z,102123.53
2022-10-17T14:27:00.653Z,102098.34
2022-10-17T14:29:51.973Z,102085.25
2022-10-17T14:32:22.836Z,102068.78
2022-10-17T14:35:05.556Z,102091.38
2022-10-17T14:37:45.575Z,102097.44
2022-10-17T14:40:24.905Z,102101.94
2022-10-17T14:42:58.209Z,102065.53
2022-10-17T14:45:37.037Z,102109.13
2022-10-17T14:48:13.291Z,102081.34
2022-10-17T14:51:03.344Z,102108.31
2022-10-17T14:53:34.282Z,102089.34
2022-10-17T14:56:22.012Z,102071.06
2022-10-17T14:58:52.645Z,102086.81
2022-10-17T15:01:22.892Z,102082.53
2022-10-17T15:03:53.145Z,102081.81
2022-10-17T15:06:29.535Z,102070.66
2022-10-17T15:09:00.272Z,102094.28
2022-10-17T15:11:30.488Z,102069.22
2022-10-17T15:14:00.633Z,102091.00
2022-10-17T15:16:32.420Z,102099.69
2022-10-17T15:19:02.734Z,102103.31
2022-10-17T15:21:40.476Z,102085.91
2022-10-17T15:24:14.329Z,102065.97
2022-10-17T15:26:44.560Z,102097.41
2022-10-17T15:29:16.189Z,102081.81
2022-10-17T15:31:46.423Z,102091.41
2022-10-17T15:34:16.925Z,102074.00
2022-10-17T15:36:51.740Z,102087.13
2022-10-17T15:39:21.865Z,102073.22
2022-10-17T15:41:52.067Z,102061.94
2022-10-17T15:44:22.252Z,102076.81
2022-10-17T15:46:52.482Z,102080.38
2022-10-17T15:49:23.085Z,102068.28
2022-10-17T15:51:55.406Z,102074.41
2022-10-17T15:54:27.286Z,102071.84
2022-10-17T15:56:58.160Z,102075.44
2022-10-17T15:59:33.783Z,102056.25
2022-10-17T16:02:03.991Z,102080.66
2022-10-17T16:04:34.157Z,102059.81
2022-10-17T16:07:04.271Z,102039.94
2022-10-17T16:09:35.152Z,102033.84
2022-10-17T16:12:07.209Z,102072.13
2022-10-17T16:14:37.418Z,102061.81
2022-10-17T16:17:13.641Z,102069.63
2022-10-17T16:19:44.405Z,102034.06
2022-10-17T16:22:24.914Z,102054.91
2022-10-17T16:24:58.934Z,102064.50
2022-10-17T16:27:29.380Z,102066.34
2022-10-17T16:29:59.515Z,102044.59
2022-10-17T16:32:29.951Z,102052.47
2022-10-17T16:35:00.238Z,102062.88
2022-10-17T16:37:30.524Z,102059.41
2022-10-17T16:40:00.791Z,102045.56
2022-10-17T16:42:31.137Z,102058.66
2022-10-17T16:45:01.788Z,102054.25
2022-10-17T16:47:31.958Z,102048.13
2022-10-17T16:50:02.027Z,102043.78
2022-10-17T16:52:32.323Z,102038.53
2022-10-17T16:55:02.831Z,102042.06
2022-10-17T16:57:33.121Z,102029.06
2022-10-17T17:00:05.162Z,102029.91
2022-10-17T17:02:35.515Z,102033.41
2022-10-17T17:05:06.317Z,102037.78
2022-10-17T17:07:36.462Z,102036.94
2022-10-17T17:10:07.046Z,102038.75
2022-10-17T17:12:37.373Z,102029.13
2022-10-17T17:15:07.852Z,102026.56
2022-10-17T17:17:49.538Z,102028.34
2022-10-17T17:20:21.510Z,102033.59
2022-10-17T17:22:52.527Z,102035.25
2022-10-17T17:25:23.089Z,102024.91
2022-10-17T17:27:53.240Z,102025.75
2022-10-17T17:30:23.410Z,102015.31
2022-10-17T17:32:53.545Z,102031.88
2022-10-17T17:35:23.698Z,102017.94
2022-10-17T17:37:53.895Z,101986.47
2022-10-17T17:40:24.111Z,101982.06
2022-10-17T17:42:54.343Z,102015.25
2022-10-17T17:45:24.527Z,101986.53
2022-10-17T17:47:55.483Z,101985.59
2022-10-17T17:50:25.623Z,102001.31
2022-10-17T17:52:55.765Z,101976.94
2022-10-17T17:55:26.042Z,101998.66
2022-10-17T17:57:56.767Z,101988.25
2022-10-17T18:00:27.960Z,101984.69
2022-10-17T18:02:58.139Z,101993.41
2022-10-17T18:05:35.041Z,101966.41
2022-10-17T18:08:17.397Z,101972.50
2022-10-17T18:10:49.619Z,101986.44
2022-10-17T18:13:19.703Z,101976.00
2022-10-17T18:15:52.014Z,101972.47
2022-10-17T18:18:22.097Z,101974.28
2022-10-17T18:20:52.703Z,101963.84
2022-10-17T18:23:23.353Z,101982.16
2022-10-17T18:25:55.423Z,101982.16
2022-10-17T18:28:25.676Z,101965.53
2022-10-17T18:30:58.263Z,101972.47
2022-10-17T18:33:28.395Z,101973.38
2022-10-17T18:36:06.688Z,101968.97
2022-10-17T18:38:37.896Z,101953.38
2022-10-17T18:41:20.287Z,101955.81
2022-10-17T18:43:51.823Z,101954.97
2022-10-17T18:46:30.835Z,101953.16
2022-10-17T18:49:01.487Z,101937.50
2022-10-17T18:51:31.650Z,101951.41
2022-10-17T18:54:03.274Z,101937.44
2022-10-17T18:56:33.514Z,101934.84
2022-10-17T18:59:04.090Z,101939.28
2022-10-17T19:01:34.924Z,101930.53
2022-10-17T19:04:05.123Z,101944.44
2022-10-17T19:06:35.854Z,101944.44
2022-10-17T19:09:08.384Z,101944.44
2022-10-17T19:11:39.316Z,101932.19
2022-10-17T19:14:14.141Z,101936.53
2022-10-17T19:16:47.115Z,101933.03
2022-10-17T19:19:22.527Z,101940.88
2022-10-17T19:21:53.153Z,101933.06
2022-10-17T19:24:26.598Z,101936.53
2022-10-17T19:26:59.484Z,101927.78
2022-10-17T19:29:33.617Z,101905.97
2022-10-17T19:32:03.861Z,101929.56
2022-10-17T19:34:35.142Z,101931.34
2022-10-17T19:37:05.436Z,101945.28
2022-10-17T19:39:35.557Z,101947.94
2022-10-17T19:42:07.039Z,101919.16
2022-10-17T19:44:37.643Z,101937.47
2022-10-17T19:47:07.816Z,101938.31
2022-10-17T19:49:39.192Z,101940.03
2022-10-17T19:52:09.347Z,101924.38
2022-10-17T19:54:40.874Z,101914.75
2022-10-17T19:57:11.081Z,101928.75
2022-10-17T19:59:41.246Z,101923.50
2022-10-17T20:02:13.268Z,101915.69
2022-10-17T20:04:54.347Z,101939.16
2022-10-17T20:07:30.224Z,101921.75
2022-10-17T20:10:00.379Z,101943.56
2022-10-17T20:12:30.659Z,101941.81
2022-10-17T20:15:01.049Z,101920.94
2022-10-17T20:17:31.200Z,101894.78
2022-10-17T20:20:03.619Z,101919.19
2022-10-17T20:22:36.452Z,101924.38
2022-10-17T20:25:06.911Z,101919.97
2022-10-17T20:27:37.301Z,101930.50
2022-10-17T20:30:08.415Z,101927.00
2022-10-17T20:32:40.144Z,101924.44
2022-10-17T20:35:10.660Z,101920.09
2022-10-17T20:37:42.665Z,101923.50
2022-10-17T20:43:08.347Z,101921.88
2022-10-17T20:45:50.629Z,101932.31
2022-10-17T20:48:21.303Z,101914.94
2022-10-17T20:50:51.726Z,101921.03
2022-10-17T20:53:36.505Z,101905.38
2022-10-17T20:56:24.503Z,101920.16
2022-10-17T20:59:02.148Z,101910.50
2022-10-17T21:01:34.944Z,101897.41
2022-10-17T21:06:55.379Z,101922.66
2022-10-17T21:09:26.017Z,101926.13
2022-10-17T21:11:57.097Z,101927.00
2022-10-17T21:14:27.405Z,101915.63
2022-10-17T21:17:01.057Z,101887.88
2022-10-17T21:19:34.338Z,101924.38
2022-10-17T21:22:04.502Z,101924.38
2022-10-17T21:24:34.880Z,101925.22
2022-10-17T21:27:10.373Z,101915.59
2022-10-17T21:29:40.545Z,101906.03
2022-10-17T21:32:25.145Z,101906.06
2022-10-17T21:35:01.883Z,101913.84
2022-10-17T21:37:31.930Z,101905.13
2022-10-17T21:40:02.157Z,101901.69
2022-10-17T21:42:32.592Z,101876.44
2022-10-17T21:45:07.553Z,101910.28
2022-10-17T21:48:11.186Z,101898.97
2022-10-17T21:50:35.984Z,101902.41
2022-10-17T21:53:06.241Z,101895.50
2022-10-17T21:55:37.741Z,101912.06
2022-10-17T21:58:07.898Z,101894.66
2022-10-17T22:00:38.052Z,101886.03
2022-10-17T22:03:09.746Z,101901.69
2022-10-17T22:05:39.837Z,101909.50
2022-10-17T22:08:09.971Z,101898.22
2022-10-17T22:10:40.830Z,101916.50
2022-10-17T22:13:11.301Z,101920.91
2022-10-17T22:15:41.532Z,101914.81
2022-10-17T22:18:12.380Z,101912.16
2022-10-17T22:20:42.648Z,101897.34
2022-10-17T22:23:12.698Z,101922.66
2022-10-17T22:25:43.253Z,101913.97
2022-10-17T22:28:13.323Z,101920.00
2022-10-17T22:30:43.420Z,101899.13
2022-10-17T22:33:13.716Z,101928.78
2022-10-17T22:35:45.038Z,101932.31
2022-10-17T22:38:15.679Z,101929.69
2022-10-17T22:40:46.912Z,101923.53
2022-10-17T22:43:17.139Z,101922.72
2022-10-17T22:45:59.056Z,101930.59
2022-10-17T22:48:30.080Z,101923.63
2022-10-17T22:51:01.481Z,101931.53
2022-10-17T22:53:31.724Z,101918.41
2022-10-17T22:56:08.286Z,101916.81
2022-10-17T22:58:38.735Z,101914.22
2022-10-17T23:01:13.844Z,101912.41
2022-10-17T23:03:44.685Z,101914.19
2022-10-17T23:06:15.338Z,101911.59
2022-10-17T23:08:45.781Z,101897.72
2022-10-17T23:11:16.965Z,101912.47
2022-10-17T23:13:47.083Z,101915.16
2022-10-17T23:16:17.567Z,101912.59
2022-10-17T23:18:47.723Z,101920.41
2022-10-17T23:21:17.804Z,101914.41
2022-10-17T23:23:48.215Z,101912.59
2022-10-17T23:26:18.374Z,101917.84
2022-10-17T23:28:48.648Z,101900.47
2022-10-17T23:31:21.454Z,101917.84
2022-10-17T23:33:51.570Z,101901.31
2022-10-17T23:36:22.433Z,101894.34
2022-10-17T23:38:55.031Z,101914.34
2022-10-17T23:41:28.257Z,101923.09
2022-10-17T23:43:58.709Z,101906.53
2022-10-17T23:46:28.822Z,101923.13
2022-10-17T23:48:58.975Z,101913.63
2022-10-17T23:51:29.225Z,101926.69
2022-10-17T23:53:59.549Z,101926.72
2022-10-17T23:56:29.702Z,101925.75
2022-10-17T23:58:59.887Z,101909.22
